AirNav   Everest Fuels
 
 1386 users online  

RI13 Foxridge Farm Heliport
West Kingston, Rhode Island, USA

GOING TO WEST KINGSTON?


FAA INFORMATION EFFECTIVE 10 OCTOBER 2019

Location

FAA Identifier: RI13
Lat/Long: 41-29-40.3630N 071-33-22.2200W
41-29.672717N 071-33.370333W
41.4945453,-71.5561722
(estimated)
Elevation: 140 ft. / 43 m (estimated)
Variation: 15W (1990)
From city: 1 mile N of WEST KINGSTON, RI
Time zone: UTC -4 (UTC -5 during Standard Time)
Zip code: 02892

Heliport Operations

Heliport use: Private use. Permission required prior to landing
Activation date: 01/1993
Control tower: no
ARTCC: BOSTON CENTER
FSS: BRIDGEPORT FLIGHT SERVICE STATION
Attendance: UNATNDD
Segmented circle: no

Heliport Communications

WX ASOS at UUU (13 nm E): 132.075 (401-846-5910)
WX ASOS at WST (14 nm SW): 132.375 (401-596-9543)
WX ASOS at PVD (15 nm NE): 124.2 (401-734-2818)
WX AWOS-3PT at BID (20 nm S): 134.775 (401-466-5495)

Nearby radio navigation aids

VOR radial/distance  VOR name  Freq  Var
PVDr216/14.9PROVIDENCE VOR/DME115.6014W
SEYr018/19.6SANDY POINT VOR/DME117.8015W
ORWr115/20.3NORWICH VOR/DME110.0014W
GONr080/24.4GROTON VOR/DME110.8514W
PUTr169/30.5PUTNAM VOR/DME117.4014W

 
NDB name  Hdg/Dist  Freq  Var  ID
TAUNTON243/33.322716WTAN - .- -.

Heliport Services

Runway Information

Helipad H1

Dimensions: 100 x 100 ft. / 30 x 30 m
Surface: turf
Traffic pattern: leftleft

Heliport Ownership and Management from official FAA records

Ownership: Privately-owned
Owner: CHARLES F SAMSON
592 FAIRGROUNDS RD
WEST KINGSTON, RI 02892
Phone 401-789-9562
Manager: CHARLES F SAMSON
592 FAIRGROUNDS RD
WEST KINGSTON, RI 02892
Phone 401-789-9562

Heliport Operational Statistics

Aircraft based on the field: 1
Helicopters: 1
    

Additional Remarks

FOR CD CTC PROVIDENCE APCH AT 401-738-8945, WHEN APCH CLSD CTC BOSTON ARTCC AT 603-879-6859.

Instrument Procedures

There are no published instrument procedures at RI13.

Some nearby airports with instrument procedures:

KOQU - Quonset State Airport (9 nm NE)
KUUU - Newport State Airport (13 nm E)
KWST - Westerly State Airport (14 nm SW)
KPVD - Theodore Francis Green State Airport (15 nm NE)
KBID - Block Island State Airport (20 nm S)
 
Loc | Ops | Rwys | IFR | FBO | Links
Com | Nav | Svcs | Stats | Notes
Area around RI13 (Foxridge Farm Heliport)
 
Road maps at: MapQuest Bing Google
 
Aerial photo
No photo
 
Sectional chart

 
Airport distance calculator
Flying to Foxridge Farm Heliport? Find the distance to fly.

From to RI13

Sunrise and sunset
Times for 14-Oct-2019
 Local
(UTC-4)
 Zulu
(UTC)
Morning civil twilight06:3010:30
Sunrise06:5810:58
Sunset18:0722:07
Evening civil twilight18:3422:34

Current date and time
Zulu (UTC)  14-Oct-2019 17:03:22
Local (UTC-4)  14-Oct-2019 13:03:22
 
METAR
KOQU 
9nm NE 
132150Z 14005KT 10SM SCT200 BKN250 16/10 A3004 RMK LAST
KUUU 
12nm E 
141653Z AUTO 28003KT 10SM OVC011 16/13 A2995 RMK AO2 SLP142 T01610133
KWST 
14nm SW 
141653Z AUTO 00000KT 10SM OVC008 18/16 A2997 RMK AO2 SLP148 T01780156
KPVD 
14nm N 
141651Z VRB04KT 10SM BKN019 OVC023 17/14 A2996 RMK AO2 SLP145 T01720139
KBID 
20nm S 
141656Z AUTO 32003KT 10SM OVC007 A2996 RMK AO2 CIG 007V011 SLPNO FZRANO $
TAF
KPVD 
14nm N 
141511Z 1415/1512 00000KT P6SM OVC009 FM141600 VRB03KT P6SM BKN010 FM141800 14005KT P6SM BKN035 FM142300 21006KT P6SM FEW040 FM150100 25006KT P6SM FEW250
NOTAMs
Click for the latest NOTAMs
NOTAMs are issued by the DoD/FAA and will open in a separate window not controlled by AirNav.

 

 
 

Would you like to see your business listed on this page?

 If your business provides an interesting product or service to pilots, flight crews, aircraft, or users of the Foxridge Farm Heliport, you should consider listing it here.  To start the listing process, click on the button below
 
Add a business
 

Other Pages about Foxridge Farm Heliport

Update a link
 
Copyright © AirNav, LLC. All rights reserved. Privacy Policy  Contact